sensor_id;sensor_type;location;lat;lon;timestamp;P1;durP1;ratioP1;P2;durP2;ratioP2
3171;SDS011;1597;51.572;6.992;2023-08-07T00:00:46;2.10;;;1.60;;
3171;SDS011;1597;51.572;6.992;2023-08-07T00:03:12;3.20;;;1.80;;
3171;SDS011;1597;51.572;6.992;2023-08-07T00:05:44;1.60;;;1.50;;
3171;SDS011;1597;51.572;6.992;2023-08-07T00:08:13;1.67;;;1.57;;
3171;SDS011;1597;51.572;6.992;2023-08-07T00:10:39;1.73;;;1.63;;
3171;SDS011;1597;51.572;6.992;2023-08-07T00:13:05;1.43;;;1.33;;
3171;SDS011;1597;51.572;6.992;2023-08-07T00:15:31;2.50;;;2.20;;
3171;SDS011;1597;51.572;6.992;2023-08-07T00:17:58;5.00;;;2.10;;
3171;SDS011;1597;51.572;6.992;2023-08-07T00:20:25;4.00;;;2.50;;
3171;SDS011;1597;51.572;6.992;2023-08-07T00:22:50;2.30;;;2.10;;
3171;SDS011;1597;51.572;6.992;2023-08-07T00:25:16;6.80;;;2.30;;
3171;SDS011;1597;51.572;6.992;2023-08-07T00:27:42;3.60;;;2.50;;
3171;SDS011;1597;51.572;6.992;2023-08-07T00:30:08;4.67;;;2.30;;
3171;SDS011;1597;51.572;6.992;2023-08-07T00:32:35;2.90;;;2.33;;
3171;SDS011;1597;51.572;6.992;2023-08-07T00:35:01;4.17;;;2.00;;
3171;SDS011;1597;51.572;6.992;2023-08-07T00:37:26;3.07;;;2.23;;
3171;SDS011;1597;51.572;6.992;2023-08-07T00:39:52;7.60;;;2.80;;
3171;SDS011;1597;51.572;6.992;2023-08-07T00:42:18;4.70;;;2.57;;
3171;SDS011;1597;51.572;6.992;2023-08-07T00:44:44;3.70;;;2.60;;
3171;SDS011;1597;51.572;6.992;2023-08-07T00:47:10;7.27;;;3.30;;
3171;SDS011;1597;51.572;6.992;2023-08-07T00:49:36;3.90;;;2.50;;
3171;SDS011;1597;51.572;6.992;2023-08-07T00:52:02;4.03;;;2.60;;
3171;SDS011;1597;51.572;6.992;2023-08-07T00:54:29;4.27;;;2.57;;
3171;SDS011;1597;51.572;6.992;2023-08-07T00:56:55;3.60;;;2.70;;
3171;SDS011;1597;51.572;6.992;2023-08-07T00:59:31;6.17;;;2.70;;
3171;SDS011;1597;51.572;6.992;2023-08-07T01:01:58;6.97;;;3.43;;
3171;SDS011;1597;51.572;6.992;2023-08-07T01:04:25;7.30;;;4.80;;
3171;SDS011;1597;51.572;6.992;2023-08-07T01:06:51;4.20;;;2.80;;
3171;SDS011;1597;51.572;6.992;2023-08-07T01:09:17;4.70;;;3.20;;
3171;SDS011;1597;51.572;6.992;2023-08-07T01:11:48;3.37;;;2.57;;
3171;SDS011;1597;51.572;6.992;2023-08-07T01:14:28;4.67;;;2.77;;
3171;SDS011;1597;51.572;6.992;2023-08-07T01:17:20;8.67;;;3.67;;
3171;SDS011;1597;51.572;6.992;2023-08-07T01:19:49;4.07;;;2.87;;
3171;SDS011;1597;51.572;6.992;2023-08-07T01:22:17;6.33;;;3.10;;
3171;SDS011;1597;51.572;6.992;2023-08-07T01:24:48;6.60;;;3.40;;
3171;SDS011;1597;51.572;6.992;2023-08-07T01:29:48;4.63;;;3.60;;
3171;SDS011;1597;51.572;6.992;2023-08-07T01:35:53;6.33;;;3.27;;
3171;SDS011;1597;51.572;6.992;2023-08-07T01:38:21;4.13;;;3.43;;
3171;SDS011;1597;51.572;6.992;2023-08-07T01:40:51;2.67;;;2.13;;
3171;SDS011;1597;51.572;6.992;2023-08-07T01:43:18;6.43;;;3.03;;
3171;SDS011;1597;51.572;6.992;2023-08-07T01:45:50;7.40;;;4.20;;
3171;SDS011;1597;51.572;6.992;2023-08-07T01:48:15;4.90;;;3.20;;
3171;SDS011;1597;51.572;6.992;2023-08-07T01:50:41;4.57;;;2.20;;
3171;SDS011;1597;51.572;6.992;2023-08-07T01:53:10;6.13;;;2.40;;
3171;SDS011;1597;51.572;6.992;2023-08-07T01:55:35;1.93;;;1.67;;
3171;SDS011;1597;51.572;6.992;2023-08-07T01:58:01;5.63;;;2.60;;
3171;SDS011;1597;51.572;6.992;2023-08-07T02:00:27;5.43;;;2.40;;
3171;SDS011;1597;51.572;6.992;2023-08-07T02:02:53;7.93;;;2.37;;
3171;SDS011;1597;51.572;6.992;2023-08-07T02:05:19;1.87;;;1.77;;
3171;SDS011;1597;51.572;6.992;2023-08-07T02:07:47;2.03;;;1.80;;
3171;SDS011;1597;51.572;6.992;2023-08-07T02:10:13;1.70;;;1.50;;
3171;SDS011;1597;51.572;6.992;2023-08-07T02:12:40;2.43;;;2.13;;
3171;SDS011;1597;51.572;6.992;2023-08-07T02:15:06;2.90;;;1.47;;
3171;SDS011;1597;51.572;6.992;2023-08-07T02:17:32;2.13;;;1.53;;
3171;SDS011;1597;51.572;6.992;2023-08-07T02:20:09;2.40;;;1.60;;
3171;SDS011;1597;51.572;6.992;2023-08-07T02:22:42;2.70;;;1.37;;
3171;SDS011;1597;51.572;6.992;2023-08-07T02:25:07;1.57;;;1.20;;
3171;SDS011;1597;51.572;6.992;2023-08-07T02:27:33;1.70;;;1.53;;
3171;SDS011;1597;51.572;6.992;2023-08-07T02:30:04;2.43;;;1.90;;
3171;SDS011;1597;51.572;6.992;2023-08-07T02:32:31;3.27;;;2.30;;
3171;SDS011;1597;51.572;6.992;2023-08-07T02:34:57;1.80;;;1.47;;
3171;SDS011;1597;51.572;6.992;2023-08-07T02:37:23;3.07;;;1.27;;
3171;SDS011;1597;51.572;6.992;2023-08-07T02:39:54;2.30;;;1.80;;
3171;SDS011;1597;51.572;6.992;2023-08-07T02:42:20;4.23;;;1.80;;
3171;SDS011;1597;51.572;6.992;2023-08-07T02:44:52;3.10;;;2.80;;
3171;SDS011;1597;51.572;6.992;2023-08-07T02:47:20;3.73;;;1.70;;
3171;SDS011;1597;51.572;6.992;2023-08-07T02:49:46;4.43;;;2.23;;
3171;SDS011;1597;51.572;6.992;2023-08-07T02:52:12;3.40;;;1.87;;
3171;SDS011;1597;51.572;6.992;2023-08-07T02:54:43;1.73;;;1.63;;
3171;SDS011;1597;51.572;6.992;2023-08-07T02:57:12;2.73;;;1.40;;
3171;SDS011;1597;51.572;6.992;2023-08-07T03:00:04;3.43;;;1.67;;
3171;SDS011;1597;51.572;6.992;2023-08-07T03:02:31;1.57;;;1.47;;
3171;SDS011;1597;51.572;6.992;2023-08-07T03:04:57;3.30;;;1.40;;
3171;SDS011;1597;51.572;6.992;2023-08-07T03:07:28;2.47;;;1.73;;
3171;SDS011;1597;51.572;6.992;2023-08-07T03:09:54;2.53;;;1.60;;
3171;SDS011;1597;51.572;6.992;2023-08-07T03:12:19;3.80;;;2.80;;
3171;SDS011;1597;51.572;6.992;2023-08-07T03:14:46;4.00;;;1.87;;
3171;SDS011;1597;51.572;6.992;2023-08-07T03:17:12;6.97;;;2.40;;
3171;SDS011;1597;51.572;6.992;2023-08-07T03:19:39;3.27;;;2.10;;
3171;SDS011;1597;51.572;6.992;2023-08-07T03:22:07;4.07;;;2.57;;
3171;SDS011;1597;51.572;6.992;2023-08-07T03:24:33;9.77;;;3.07;;
3171;SDS011;1597;51.572;6.992;2023-08-07T03:26:59;13.00;;;3.80;;
3171;SDS011;1597;51.572;6.992;2023-08-07T03:29:28;5.90;;;3.20;;
3171;SDS011;1597;51.572;6.992;2023-08-07T03:31:53;6.87;;;3.57;;
3171;SDS011;1597;51.572;6.992;2023-08-07T03:34:22;6.13;;;3.73;;
3171;SDS011;1597;51.572;6.992;2023-08-07T03:36:48;3.73;;;3.43;;
3171;SDS011;1597;51.572;6.992;2023-08-07T03:39:14;7.70;;;4.13;;
3171;SDS011;1597;51.572;6.992;2023-08-07T03:41:40;9.17;;;4.20;;
3171;SDS011;1597;51.572;6.992;2023-08-07T03:44:14;7.57;;;4.50;;
3171;SDS011;1597;51.572;6.992;2023-08-07T03:46:40;12.00;;;4.47;;
3171;SDS011;1597;51.572;6.992;2023-08-07T03:49:06;12.97;;;4.60;;
3171;SDS011;1597;51.572;6.992;2023-08-07T03:51:34;9.10;;;5.10;;
3171;SDS011;1597;51.572;6.992;2023-08-07T03:54:06;6.43;;;3.33;;
3171;SDS011;1597;51.572;6.992;2023-08-07T03:56:32;7.50;;;3.53;;
3171;SDS011;1597;51.572;6.992;2023-08-07T03:59:01;7.37;;;3.43;;
3171;SDS011;1597;51.572;6.992;2023-08-07T04:01:43;9.20;;;3.80;;
3171;SDS011;1597;51.572;6.992;2023-08-07T04:04:09;8.63;;;4.20;;
3171;SDS011;1597;51.572;6.992;2023-08-07T04:06:38;9.63;;;4.80;;
3171;SDS011;1597;51.572;6.992;2023-08-07T04:09:07;7.50;;;4.00;;
3171;SDS011;1597;51.572;6.992;2023-08-07T04:11:36;7.60;;;4.70;;
3171;SDS011;1597;51.572;6.992;2023-08-07T04:14:02;6.23;;;4.00;;
3171;SDS011;1597;51.572;6.992;2023-08-07T04:16:29;5.97;;;4.00;;
3171;SDS011;1597;51.572;6.992;2023-08-07T04:18:56;9.00;;;4.93;;
3171;SDS011;1597;51.572;6.992;2023-08-07T04:21:22;10.10;;;5.00;;
3171;SDS011;1597;51.572;6.992;2023-08-07T04:23:48;10.30;;;4.70;;
3171;SDS011;1597;51.572;6.992;2023-08-07T04:26:13;12.27;;;5.90;;
3171;SDS011;1597;51.572;6.992;2023-08-07T04:28:39;11.00;;;4.27;;
3171;SDS011;1597;51.572;6.992;2023-08-07T04:31:06;5.70;;;4.27;;
3171;SDS011;1597;51.572;6.992;2023-08-07T04:33:31;10.70;;;4.70;;
3171;SDS011;1597;51.572;6.992;2023-08-07T04:35:57;7.00;;;4.33;;
3171;SDS011;1597;51.572;6.992;2023-08-07T04:38:23;12.40;;;4.90;;
3171;SDS011;1597;51.572;6.992;2023-08-07T04:40:49;13.07;;;4.80;;
3171;SDS011;1597;51.572;6.992;2023-08-07T04:43:15;7.60;;;5.13;;
3171;SDS011;1597;51.572;6.992;2023-08-07T04:45:43;11.90;;;5.40;;
3171;SDS011;1597;51.572;6.992;2023-08-07T04:48:14;8.13;;;5.20;;
3171;SDS011;1597;51.572;6.992;2023-08-07T04:50:42;10.53;;;4.50;;
3171;SDS011;1597;51.572;6.992;2023-08-07T04:53:08;10.00;;;3.90;;
3171;SDS011;1597;51.572;6.992;2023-08-07T04:55:34;8.40;;;4.03;;
3171;SDS011;1597;51.572;6.992;2023-08-07T04:58:03;7.97;;;4.07;;
3171;SDS011;1597;51.572;6.992;2023-08-07T05:00:53;8.30;;;4.30;;
3171;SDS011;1597;51.572;6.992;2023-08-07T05:03:23;6.77;;;4.17;;
3171;SDS011;1597;51.572;6.992;2023-08-07T05:05:59;10.77;;;4.03;;
3171;SDS011;1597;51.572;6.992;2023-08-07T05:12:07;7.53;;;3.93;;
3171;SDS011;1597;51.572;6.992;2023-08-07T05:14:38;7.67;;;5.00;;
3171;SDS011;1597;51.572;6.992;2023-08-07T05:17:22;5.97;;;4.90;;
3171;SDS011;1597;51.572;6.992;2023-08-07T05:19:48;14.20;;;6.50;;
3171;SDS011;1597;51.572;6.992;2023-08-07T05:22:14;10.57;;;5.37;;
3171;SDS011;1597;51.572;6.992;2023-08-07T05:24:40;8.93;;;5.20;;
3171;SDS011;1597;51.572;6.992;2023-08-07T05:27:09;12.40;;;5.60;;
3171;SDS011;1597;51.572;6.992;2023-08-07T05:29:35;6.67;;;5.27;;
3171;SDS011;1597;51.572;6.992;2023-08-07T05:32:12;9.13;;;5.47;;
3171;SDS011;1597;51.572;6.992;2023-08-07T05:34:41;7.13;;;5.17;;
3171;SDS011;1597;51.572;6.992;2023-08-07T05:37:09;9.50;;;4.87;;
3171;SDS011;1597;51.572;6.992;2023-08-07T05:39:35;11.47;;;5.40;;
3171;SDS011;1597;51.572;6.992;2023-08-07T05:42:01;11.80;;;5.53;;
3171;SDS011;1597;51.572;6.992;2023-08-07T05:44:27;8.53;;;5.57;;
3171;SDS011;1597;51.572;6.992;2023-08-07T05:46:54;5.77;;;4.80;;
3171;SDS011;1597;51.572;6.992;2023-08-07T05:49:19;6.40;;;5.70;;
3171;SDS011;1597;51.572;6.992;2023-08-07T05:51:46;5.80;;;5.07;;
3171;SDS011;1597;51.572;6.992;2023-08-07T05:54:12;6.00;;;5.37;;
3171;SDS011;1597;51.572;6.992;2023-08-07T05:56:40;8.20;;;5.10;;
3171;SDS011;1597;51.572;6.992;2023-08-07T05:59:06;3.70;;;3.30;;
3171;SDS011;1597;51.572;6.992;2023-08-07T06:01:32;7.23;;;4.37;;
3171;SDS011;1597;51.572;6.992;2023-08-07T06:03:57;9.87;;;4.50;;
3171;SDS011;1597;51.572;6.992;2023-08-07T06:06:26;10.23;;;4.47;;
3171;SDS011;1597;51.572;6.992;2023-08-07T06:08:59;9.20;;;5.43;;
3171;SDS011;1597;51.572;6.992;2023-08-07T06:11:27;7.57;;;4.53;;
3171;SDS011;1597;51.572;6.992;2023-08-07T06:13:53;5.97;;;3.70;;
3171;SDS011;1597;51.572;6.992;2023-08-07T06:16:19;5.63;;;3.70;;
3171;SDS011;1597;51.572;6.992;2023-08-07T06:18:45;10.80;;;3.63;;
3171;SDS011;1597;51.572;6.992;2023-08-07T06:21:10;7.83;;;3.80;;
3171;SDS011;1597;51.572;6.992;2023-08-07T06:23:38;6.90;;;3.53;;
3171;SDS011;1597;51.572;6.992;2023-08-07T06:26:06;9.33;;;4.27;;
3171;SDS011;1597;51.572;6.992;2023-08-07T06:28:33;5.87;;;3.47;;
3171;SDS011;1597;51.572;6.992;2023-08-07T06:31:08;6.20;;;3.40;;
3171;SDS011;1597;51.572;6.992;2023-08-07T06:33:38;3.60;;;3.13;;
3171;SDS011;1597;51.572;6.992;2023-08-07T06:36:04;8.47;;;3.77;;
3171;SDS011;1597;51.572;6.992;2023-08-07T06:38:31;4.97;;;3.10;;
3171;SDS011;1597;51.572;6.992;2023-08-07T06:40:57;3.27;;;2.97;;
3171;SDS011;1597;51.572;6.992;2023-08-07T06:43:22;9.17;;;3.83;;
3171;SDS011;1597;51.572;6.992;2023-08-07T06:45:51;4.47;;;3.00;;
3171;SDS011;1597;51.572;6.992;2023-08-07T06:48:19;5.67;;;2.87;;
3171;SDS011;1597;51.572;6.992;2023-08-07T06:50:48;7.20;;;4.03;;
3171;SDS011;1597;51.572;6.992;2023-08-07T06:53:15;6.10;;;4.00;;
3171;SDS011;1597;51.572;6.992;2023-08-07T06:55:42;4.00;;;3.57;;
3171;SDS011;1597;51.572;6.992;2023-08-07T06:58:08;4.20;;;3.10;;
3171;SDS011;1597;51.572;6.992;2023-08-07T07:00:35;4.30;;;3.53;;
3171;SDS011;1597;51.572;6.992;2023-08-07T07:03:01;7.60;;;3.80;;
3171;SDS011;1597;51.572;6.992;2023-08-07T07:05:28;7.10;;;3.93;;
3171;SDS011;1597;51.572;6.992;2023-08-07T07:07:55;4.23;;;3.83;;
3171;SDS011;1597;51.572;6.992;2023-08-07T07:10:22;5.30;;;4.50;;
3171;SDS011;1597;51.572;6.992;2023-08-07T07:12:47;6.90;;;3.70;;
3171;SDS011;1597;51.572;6.992;2023-08-07T07:15:13;6.97;;;4.23;;
3171;SDS011;1597;51.572;6.992;2023-08-07T07:17:40;6.70;;;3.70;;
3171;SDS011;1597;51.572;6.992;2023-08-07T07:20:06;5.67;;;4.50;;
3171;SDS011;1597;51.572;6.992;2023-08-07T07:22:34;6.20;;;4.40;;
3171;SDS011;1597;51.572;6.992;2023-08-07T07:25:06;8.50;;;5.67;;
3171;SDS011;1597;51.572;6.992;2023-08-07T07:27:36;4.67;;;3.60;;
3171;SDS011;1597;51.572;6.992;2023-08-07T07:30:01;7.37;;;4.00;;
3171;SDS011;1597;51.572;6.992;2023-08-07T07:32:27;8.80;;;4.77;;
3171;SDS011;1597;51.572;6.992;2023-08-07T07:34:54;5.40;;;4.30;;
3171;SDS011;1597;51.572;6.992;2023-08-07T07:37:20;7.47;;;3.87;;
3171;SDS011;1597;51.572;6.992;2023-08-07T07:39:46;5.60;;;4.00;;
3171;SDS011;1597;51.572;6.992;2023-08-07T07:42:12;5.60;;;4.33;;
3171;SDS011;1597;51.572;6.992;2023-08-07T07:44:38;4.60;;;4.17;;
3171;SDS011;1597;51.572;6.992;2023-08-07T07:47:04;7.07;;;4.60;;
3171;SDS011;1597;51.572;6.992;2023-08-07T07:49:32;3.63;;;3.33;;
3171;SDS011;1597;51.572;6.992;2023-08-07T07:51:58;5.37;;;3.40;;
3171;SDS011;1597;51.572;6.992;2023-08-07T07:54:24;7.27;;;2.80;;
3171;SDS011;1597;51.572;6.992;2023-08-07T07:56:53;5.10;;;2.97;;
3171;SDS011;1597;51.572;6.992;2023-08-07T07:59:24;4.47;;;3.00;;
3171;SDS011;1597;51.572;6.992;2023-08-07T08:01:50;5.17;;;3.70;;
3171;SDS011;1597;51.572;6.992;2023-08-07T08:04:16;6.90;;;3.57;;
3171;SDS011;1597;51.572;6.992;2023-08-07T08:06:42;6.93;;;3.60;;
3171;SDS011;1597;51.572;6.992;2023-08-07T08:09:08;5.20;;;3.73;;
3171;SDS011;1597;51.572;6.992;2023-08-07T08:11:37;4.03;;;3.00;;
3171;SDS011;1597;51.572;6.992;2023-08-07T08:14:02;4.43;;;2.60;;
3171;SDS011;1597;51.572;6.992;2023-08-07T08:16:28;3.63;;;3.27;;
3171;SDS011;1597;51.572;6.992;2023-08-07T08:18:54;4.20;;;3.10;;
3171;SDS011;1597;51.572;6.992;2023-08-07T08:21:20;7.10;;;4.13;;
3171;SDS011;1597;51.572;6.992;2023-08-07T08:23:45;6.00;;;3.10;;
3171;SDS011;1597;51.572;6.992;2023-08-07T08:26:11;7.27;;;2.77;;
3171;SDS011;1597;51.572;6.992;2023-08-07T08:28:40;4.40;;;3.50;;
3171;SDS011;1597;51.572;6.992;2023-08-07T08:31:05;6.60;;;3.10;;
3171;SDS011;1597;51.572;6.992;2023-08-07T08:33:31;5.47;;;3.23;;
3171;SDS011;1597;51.572;6.992;2023-08-07T08:35:57;4.23;;;3.60;;
3171;SDS011;1597;51.572;6.992;2023-08-07T08:38:23;9.17;;;5.13;;
3171;SDS011;1597;51.572;6.992;2023-08-07T08:40:51;11.03;;;4.30;;
3171;SDS011;1597;51.572;6.992;2023-08-07T08:43:17;5.10;;;3.67;;
3171;SDS011;1597;51.572;6.992;2023-08-07T08:45:45;10.67;;;4.97;;
3171;SDS011;1597;51.572;6.992;2023-08-07T08:48:13;10.30;;;5.00;;
3171;SDS011;1597;51.572;6.992;2023-08-07T08:50:47;11.73;;;4.10;;
3171;SDS011;1597;51.572;6.992;2023-08-07T08:53:15;12.47;;;4.70;;
3171;SDS011;1597;51.572;6.992;2023-08-07T08:58:57;5.10;;;3.80;;
3171;SDS011;1597;51.572;6.992;2023-08-07T09:01:23;9.63;;;4.10;;
3171;SDS011;1597;51.572;6.992;2023-08-07T09:03:53;11.30;;;3.50;;
3171;SDS011;1597;51.572;6.992;2023-08-07T09:06:21;15.77;;;4.83;;
3171;SDS011;1597;51.572;6.992;2023-08-07T09:11:52;7.97;;;3.70;;
3171;SDS011;1597;51.572;6.992;2023-08-07T09:14:24;10.20;;;3.77;;
3171;SDS011;1597;51.572;6.992;2023-08-07T09:16:52;7.97;;;3.33;;
3171;SDS011;1597;51.572;6.992;2023-08-07T09:19:20;9.30;;;3.87;;
3171;SDS011;1597;51.572;6.992;2023-08-07T09:22:04;6.40;;;3.57;;
3171;SDS011;1597;51.572;6.992;2023-08-07T09:24:34;5.60;;;3.00;;
3171;SDS011;1597;51.572;6.992;2023-08-07T09:27:06;16.17;;;10.53;;
3171;SDS011;1597;51.572;6.992;2023-08-07T09:29:35;10.07;;;4.47;;
3171;SDS011;1597;51.572;6.992;2023-08-07T09:32:34;6.33;;;3.50;;
3171;SDS011;1597;51.572;6.992;2023-08-07T09:34:53;6.90;;;3.37;;
3171;SDS011;1597;51.572;6.992;2023-08-07T09:37:19;6.30;;;3.77;;
3171;SDS011;1597;51.572;6.992;2023-08-07T09:39:50;11.63;;;4.80;;
3171;SDS011;1597;51.572;6.992;2023-08-07T09:42:16;9.37;;;4.27;;
3171;SDS011;1597;51.572;6.992;2023-08-07T09:44:45;6.07;;;4.10;;
3171;SDS011;1597;51.572;6.992;2023-08-07T09:47:17;8.60;;;4.50;;
3171;SDS011;1597;51.572;6.992;2023-08-07T09:49:44;7.00;;;3.40;;
3171;SDS011;1597;51.572;6.992;2023-08-07T09:52:12;13.63;;;4.50;;
3171;SDS011;1597;51.572;6.992;2023-08-07T09:54:40;4.97;;;3.03;;
3171;SDS011;1597;51.572;6.992;2023-08-07T09:57:07;10.03;;;3.80;;
3171;SDS011;1597;51.572;6.992;2023-08-07T09:59:33;4.10;;;3.17;;
3171;SDS011;1597;51.572;6.992;2023-08-07T10:02:00;8.53;;;2.83;;
3171;SDS011;1597;51.572;6.992;2023-08-07T10:04:27;4.20;;;3.13;;
3171;SDS011;1597;51.572;6.992;2023-08-07T10:06:54;6.73;;;3.80;;
3171;SDS011;1597;51.572;6.992;2023-08-07T10:09:21;10.90;;;3.90;;
3171;SDS011;1597;51.572;6.992;2023-08-07T10:11:47;5.87;;;3.40;;
3171;SDS011;1597;51.572;6.992;2023-08-07T10:14:20;7.03;;;4.57;;
3171;SDS011;1597;51.572;6.992;2023-08-07T10:16:47;3.97;;;3.23;;
3171;SDS011;1597;51.572;6.992;2023-08-07T10:19:14;8.10;;;4.53;;
3171;SDS011;1597;51.572;6.992;2023-08-07T10:21:41;6.80;;;3.50;;
3171;SDS011;1597;51.572;6.992;2023-08-07T10:24:08;8.33;;;3.30;;
3171;SDS011;1597;51.572;6.992;2023-08-07T10:26:40;9.77;;;4.10;;
3171;SDS011;1597;51.572;6.992;2023-08-07T10:29:16;11.13;;;4.43;;
3171;SDS011;1597;51.572;6.992;2023-08-07T10:31:49;5.40;;;3.80;;
3171;SDS011;1597;51.572;6.992;2023-08-07T10:34:45;9.17;;;4.50;;
3171;SDS011;1597;51.572;6.992;2023-08-07T10:40:10;12.17;;;4.60;;
3171;SDS011;1597;51.572;6.992;2023-08-07T10:45:22;13.70;;;4.00;;
3171;SDS011;1597;51.572;6.992;2023-08-07T10:50:35;9.03;;;3.80;;
3171;SDS011;1597;51.572;6.992;2023-08-07T10:53:38;5.23;;;3.30;;
3171;SDS011;1597;51.572;6.992;2023-08-07T10:56:15;7.20;;;3.87;;
3171;SDS011;1597;51.572;6.992;2023-08-07T10:58:51;6.50;;;4.70;;
3171;SDS011;1597;51.572;6.992;2023-08-07T11:01:18;7.23;;;3.73;;
3171;SDS011;1597;51.572;6.992;2023-08-07T11:03:56;5.13;;;3.30;;
3171;SDS011;1597;51.572;6.992;2023-08-07T11:06:24;9.70;;;4.13;;
3171;SDS011;1597;51.572;6.992;2023-08-07T11:08:56;6.03;;;3.60;;
3171;SDS011;1597;51.572;6.992;2023-08-07T11:11:48;6.50;;;4.47;;
3171;SDS011;1597;51.572;6.992;2023-08-07T11:14:18;9.40;;;4.93;;
3171;SDS011;1597;51.572;6.992;2023-08-07T11:16:48;5.20;;;2.90;;
3171;SDS011;1597;51.572;6.992;2023-08-07T11:19:14;7.07;;;3.97;;
3171;SDS011;1597;51.572;6.992;2023-08-07T11:21:45;5.97;;;3.40;;
3171;SDS011;1597;51.572;6.992;2023-08-07T11:24:13;7.90;;;3.40;;
3171;SDS011;1597;51.572;6.992;2023-08-07T11:26:44;7.20;;;3.77;;
3171;SDS011;1597;51.572;6.992;2023-08-07T11:29:15;7.00;;;4.37;;
3171;SDS011;1597;51.572;6.992;2023-08-07T11:31:42;12.47;;;4.77;;
3171;SDS011;1597;51.572;6.992;2023-08-07T11:34:08;5.60;;;3.40;;
3171;SDS011;1597;51.572;6.992;2023-08-07T11:36:42;4.07;;;3.00;;
3171;SDS011;1597;51.572;6.992;2023-08-07T11:39:08;6.90;;;3.60;;
3171;SDS011;1597;51.572;6.992;2023-08-07T11:41:39;4.83;;;3.20;;
3171;SDS011;1597;51.572;6.992;2023-08-07T11:44:08;5.20;;;3.30;;
3171;SDS011;1597;51.572;6.992;2023-08-07T11:46:40;10.97;;;4.10;;
3171;SDS011;1597;51.572;6.992;2023-08-07T11:49:06;8.40;;;3.30;;
3171;SDS011;1597;51.572;6.992;2023-08-07T11:51:34;6.47;;;2.27;;
3171;SDS011;1597;51.572;6.992;2023-08-07T11:54:03;7.10;;;2.70;;
3171;SDS011;1597;51.572;6.992;2023-08-07T11:56:29;8.37;;;4.40;;
3171;SDS011;1597;51.572;6.992;2023-08-07T11:58:56;5.40;;;2.60;;
3171;SDS011;1597;51.572;6.992;2023-08-07T12:01:23;4.97;;;3.00;;
3171;SDS011;1597;51.572;6.992;2023-08-07T12:06:33;5.83;;;3.50;;
3171;SDS011;1597;51.572;6.992;2023-08-07T12:09:05;5.03;;;2.90;;
3171;SDS011;1597;51.572;6.992;2023-08-07T12:11:37;5.73;;;3.47;;
3171;SDS011;1597;51.572;6.992;2023-08-07T12:14:03;8.23;;;2.90;;
3171;SDS011;1597;51.572;6.992;2023-08-07T12:16:33;4.57;;;2.87;;
3171;SDS011;1597;51.572;6.992;2023-08-07T12:19:00;4.50;;;2.50;;
3171;SDS011;1597;51.572;6.992;2023-08-07T12:21:26;4.17;;;2.33;;
3171;SDS011;1597;51.572;6.992;2023-08-07T12:23:56;4.47;;;2.90;;
3171;SDS011;1597;51.572;6.992;2023-08-07T12:26:22;8.13;;;3.10;;
3171;SDS011;1597;51.572;6.992;2023-08-07T12:28:48;10.63;;;5.27;;
3171;SDS011;1597;51.572;6.992;2023-08-07T12:31:14;4.83;;;2.87;;
3171;SDS011;1597;51.572;6.992;2023-08-07T12:33:43;11.13;;;6.33;;
3171;SDS011;1597;51.572;6.992;2023-08-07T12:36:09;7.87;;;3.57;;
3171;SDS011;1597;51.572;6.992;2023-08-07T12:38:36;6.00;;;3.33;;
3171;SDS011;1597;51.572;6.992;2023-08-07T12:41:06;4.87;;;2.93;;
3171;SDS011;1597;51.572;6.992;2023-08-07T12:43:32;12.03;;;4.90;;
3171;SDS011;1597;51.572;6.992;2023-08-07T12:45:59;5.60;;;3.70;;
3171;SDS011;1597;51.572;6.992;2023-08-07T12:48:25;9.47;;;5.30;;
3171;SDS011;1597;51.572;6.992;2023-08-07T12:50:52;8.73;;;4.30;;
3171;SDS011;1597;51.572;6.992;2023-08-07T12:53:18;7.97;;;3.63;;
3171;SDS011;1597;51.572;6.992;2023-08-07T12:55:44;3.90;;;2.93;;
3171;SDS011;1597;51.572;6.992;2023-08-07T12:58:10;3.10;;;2.27;;
3171;SDS011;1597;51.572;6.992;2023-08-07T13:00:36;8.17;;;2.93;;
3171;SDS011;1597;51.572;6.992;2023-08-07T13:03:02;8.30;;;3.00;;
3171;SDS011;1597;51.572;6.992;2023-08-07T13:05:28;4.60;;;2.37;;
3171;SDS011;1597;51.572;6.992;2023-08-07T13:07:56;5.03;;;2.53;;
3171;SDS011;1597;51.572;6.992;2023-08-07T13:10:23;5.70;;;2.23;;
3171;SDS011;1597;51.572;6.992;2023-08-07T13:12:53;4.73;;;2.37;;
3171;SDS011;1597;51.572;6.992;2023-08-07T13:15:18;6.60;;;2.50;;
3171;SDS011;1597;51.572;6.992;2023-08-07T13:17:45;5.20;;;2.93;;
3171;SDS011;1597;51.572;6.992;2023-08-07T13:20:13;7.00;;;3.10;;
3171;SDS011;1597;51.572;6.992;2023-08-07T13:22:40;6.07;;;2.67;;
3171;SDS011;1597;51.572;6.992;2023-08-07T13:25:07;4.43;;;2.50;;
3171;SDS011;1597;51.572;6.992;2023-08-07T13:27:35;6.73;;;2.73;;
3171;SDS011;1597;51.572;6.992;2023-08-07T13:30:02;5.90;;;2.40;;
3171;SDS011;1597;51.572;6.992;2023-08-07T13:32:28;6.20;;;2.90;;
3171;SDS011;1597;51.572;6.992;2023-08-07T13:34:55;5.43;;;2.70;;
3171;SDS011;1597;51.572;6.992;2023-08-07T13:37:20;4.20;;;2.60;;
3171;SDS011;1597;51.572;6.992;2023-08-07T13:39:46;5.33;;;2.90;;
3171;SDS011;1597;51.572;6.992;2023-08-07T13:42:14;5.57;;;2.40;;
3171;SDS011;1597;51.572;6.992;2023-08-07T13:44:40;7.90;;;2.53;;
3171;SDS011;1597;51.572;6.992;2023-08-07T13:47:06;7.33;;;2.57;;
3171;SDS011;1597;51.572;6.992;2023-08-07T13:49:32;5.50;;;2.67;;
3171;SDS011;1597;51.572;6.992;2023-08-07T13:51:59;3.60;;;2.37;;
3171;SDS011;1597;51.572;6.992;2023-08-07T13:54:25;3.00;;;2.17;;
3171;SDS011;1597;51.572;6.992;2023-08-07T13:56:50;4.90;;;2.57;;
3171;SDS011;1597;51.572;6.992;2023-08-07T13:59:17;2.87;;;2.40;;
3171;SDS011;1597;51.572;6.992;2023-08-07T14:01:42;4.37;;;2.97;;
3171;SDS011;1597;51.572;6.992;2023-08-07T14:04:08;7.33;;;2.50;;
3171;SDS011;1597;51.572;6.992;2023-08-07T14:06:34;3.43;;;2.43;;
3171;SDS011;1597;51.572;6.992;2023-08-07T14:09:00;6.70;;;2.17;;
3171;SDS011;1597;51.572;6.992;2023-08-07T14:11:26;7.43;;;2.33;;
3171;SDS011;1597;51.572;6.992;2023-08-07T14:13:58;7.63;;;2.13;;
3171;SDS011;1597;51.572;6.992;2023-08-07T14:16:25;7.33;;;2.70;;
3171;SDS011;1597;51.572;6.992;2023-08-07T14:18:51;3.53;;;2.50;;
3171;SDS011;1597;51.572;6.992;2023-08-07T14:21:17;2.73;;;1.90;;
3171;SDS011;1597;51.572;6.992;2023-08-07T14:23:43;6.47;;;1.97;;
3171;SDS011;1597;51.572;6.992;2023-08-07T14:26:14;5.83;;;2.87;;
3171;SDS011;1597;51.572;6.992;2023-08-07T14:28:41;12.33;;;6.13;;
3171;SDS011;1597;51.572;6.992;2023-08-07T14:31:07;4.60;;;2.50;;
3171;SDS011;1597;51.572;6.992;2023-08-07T14:33:34;5.37;;;2.30;;
3171;SDS011;1597;51.572;6.992;2023-08-07T14:36:02;6.13;;;2.23;;
3171;SDS011;1597;51.572;6.992;2023-08-07T14:38:29;5.03;;;2.43;;
3171;SDS011;1597;51.572;6.992;2023-08-07T14:40:55;4.13;;;2.10;;
3171;SDS011;1597;51.572;6.992;2023-08-07T14:43:30;4.70;;;2.60;;
3171;SDS011;1597;51.572;6.992;2023-08-07T14:45:57;3.70;;;2.27;;
3171;SDS011;1597;51.572;6.992;2023-08-07T14:48:23;7.80;;;2.70;;
3171;SDS011;1597;51.572;6.992;2023-08-07T14:50:49;4.10;;;2.17;;
3171;SDS011;1597;51.572;6.992;2023-08-07T14:53:16;8.77;;;2.67;;
3171;SDS011;1597;51.572;6.992;2023-08-07T14:55:51;7.07;;;3.93;;
3171;SDS011;1597;51.572;6.992;2023-08-07T14:58:18;9.60;;;6.87;;
3171;SDS011;1597;51.572;6.992;2023-08-07T15:00:45;5.83;;;2.67;;
3171;SDS011;1597;51.572;6.992;2023-08-07T15:03:11;4.67;;;3.57;;
3171;SDS011;1597;51.572;6.992;2023-08-07T15:05:37;4.17;;;2.50;;
3171;SDS011;1597;51.572;6.992;2023-08-07T15:08:02;3.23;;;2.23;;
3171;SDS011;1597;51.572;6.992;2023-08-07T15:10:29;3.73;;;2.03;;
3171;SDS011;1597;51.572;6.992;2023-08-07T15:12:56;4.30;;;2.20;;
3171;SDS011;1597;51.572;6.992;2023-08-07T15:15:23;3.37;;;2.00;;
3171;SDS011;1597;51.572;6.992;2023-08-07T15:17:49;4.23;;;1.70;;
3171;SDS011;1597;51.572;6.992;2023-08-07T15:20:15;7.67;;;2.37;;
3171;SDS011;1597;51.572;6.992;2023-08-07T15:22:47;3.00;;;1.70;;
3171;SDS011;1597;51.572;6.992;2023-08-07T15:25:13;2.67;;;1.63;;
3171;SDS011;1597;51.572;6.992;2023-08-07T15:27:39;6.10;;;2.50;;
3171;SDS011;1597;51.572;6.992;2023-08-07T15:30:05;2.10;;;1.90;;
3171;SDS011;1597;51.572;6.992;2023-08-07T15:32:32;3.77;;;3.30;;
3171;SDS011;1597;51.572;6.992;2023-08-07T15:34:59;4.03;;;2.00;;
3171;SDS011;1597;51.572;6.992;2023-08-07T15:37:26;2.20;;;1.83;;
3171;SDS011;1597;51.572;6.992;2023-08-07T15:39:52;2.83;;;2.10;;
3171;SDS011;1597;51.572;6.992;2023-08-07T15:42:17;5.47;;;1.80;;
3171;SDS011;1597;51.572;6.992;2023-08-07T15:44:46;3.50;;;1.80;;
3171;SDS011;1597;51.572;6.992;2023-08-07T15:47:11;2.80;;;2.00;;